sensor_id;sensor_type;location;lat;lon;timestamp;pressure;altitude;pressure_sealevel;temperature;humidity
74346;BME280;62776;50.518;6.732;2022-08-19T00:00:42;96395.81;;;17.62;94.54
74346;BME280;62776;50.518;6.732;2022-08-19T00:03:28;96391.53;;;17.60;95.10
74346;BME280;62776;50.518;6.732;2022-08-19T00:06:15;96403.03;;;17.57;95.15
74346;BME280;62776;50.518;6.732;2022-08-19T00:09:04;96405.78;;;17.54;95.57
74346;BME280;62776;50.518;6.732;2022-08-19T00:11:53;96409.28;;;17.55;95.87
74346;BME280;62776;50.518;6.732;2022-08-19T00:14:41;96411.03;;;17.53;96.15
74346;BME280;62776;50.518;6.732;2022-08-19T00:17:28;96405.78;;;17.54;95.81
74346;BME280;62776;50.518;6.732;2022-08-19T00:20:18;96403.34;;;17.48;96.07
74346;BME280;62776;50.518;6.732;2022-08-19T00:23:04;96403.34;;;17.48;97.16
74346;BME280;62776;50.518;6.732;2022-08-19T00:25:50;96403.34;;;17.48;97.09
74346;BME280;62776;50.518;6.732;2022-08-19T00:28:37;96387.69;;;17.45;97.20
74346;BME280;62776;50.518;6.732;2022-08-19T00:31:23;96396.44;;;17.46;97.56
74346;BME280;62776;50.518;6.732;2022-08-19T00:34:12;96393.94;;;17.43;97.27
74346;BME280;62776;50.518;6.732;2022-08-19T00:36:59;96392.09;;;17.45;98.15
74346;BME280;62776;50.518;6.732;2022-08-19T00:39:45;96399.19;;;17.43;98.69
74346;BME280;62776;50.518;6.732;2022-08-19T00:42:31;96401.81;;;17.43;98.12
74346;BME280;62776;50.518;6.732;2022-08-19T00:45:25;96401.28;;;17.35;97.88
74346;BME280;62776;50.518;6.732;2022-08-19T00:48:12;96402.72;;;17.42;98.37
74346;BME280;62776;50.518;6.732;2022-08-19T00:50:59;96408.84;;;17.42;98.44
74346;BME280;62776;50.518;6.732;2022-08-19T00:53:45;96409.78;;;17.41;97.91
74346;BME280;62776;50.518;6.732;2022-08-19T00:56:31;96402.72;;;17.42;97.34
74346;BME280;62776;50.518;6.732;2022-08-19T00:59:18;96409.72;;;17.43;98.66
74346;BME280;62776;50.518;6.732;2022-08-19T01:02:06;96404.44;;;17.43;99.95
74346;BME280;62776;50.518;6.732;2022-08-19T01:04:52;96405.34;;;17.42;99.62
74346;BME280;62776;50.518;6.732;2022-08-19T01:07:39;96401.75;;;17.44;99.47
74346;BME280;62776;50.518;6.732;2022-08-19T01:10:29;96399.31;;;17.40;98.71
74346;BME280;62776;50.518;6.732;2022-08-19T01:13:19;96398.44;;;17.39;99.29
74346;BME280;62776;50.518;6.732;2022-08-19T01:16:09;96385.50;;;17.35;98.12
74346;BME280;62776;50.518;6.732;2022-08-19T01:18:56;96374.03;;;17.37;98.65
74346;BME280;62776;50.518;6.732;2022-08-19T01:22:00;96374.25;;;17.31;99.18
74346;BME280;62776;50.518;6.732;2022-08-19T01:24:48;96385.69;;;17.30;100.00
74346;BME280;62776;50.518;6.732;2022-08-19T01:27:42;96385.25;;;17.19;100.00
74346;BME280;62776;50.518;6.732;2022-08-19T01:30:33;96373.66;;;17.25;100.00
74346;BME280;62776;50.518;6.732;2022-08-19T01:33:20;96377.94;;;17.27;99.36
74346;BME280;62776;50.518;6.732;2022-08-19T01:36:10;96365.91;;;17.22;99.00
74346;BME280;62776;50.518;6.732;2022-08-19T01:38:57;96369.44;;;17.21;98.18
74346;BME280;62776;50.518;6.732;2022-08-19T01:41:45;96373.03;;;17.18;98.79
74346;BME280;62776;50.518;6.732;2022-08-19T01:44:31;96374.00;;;17.16;98.81
74346;BME280;62776;50.518;6.732;2022-08-19T01:47:17;96369.72;;;17.13;99.41
74346;BME280;62776;50.518;6.732;2022-08-19T01:50:05;96375.97;;;17.10;99.02
74346;BME280;62776;50.518;6.732;2022-08-19T01:52:52;96376.88;;;17.09;99.35
74346;BME280;62776;50.518;6.732;2022-08-19T01:55:40;96383.97;;;17.07;100.00
74346;BME280;62776;50.518;6.732;2022-08-19T01:58:36;96374.59;;;17.00;100.00
74346;BME280;62776;50.518;6.732;2022-08-19T02:01:24;96371.69;;;17.08;100.00
74346;BME280;62776;50.518;6.732;2022-08-19T02:04:10;96373.38;;;17.09;100.00
74346;BME280;62776;50.518;6.732;2022-08-19T02:06:57;96373.50;;;17.06;100.00
74346;BME280;62776;50.518;6.732;2022-08-19T02:09:44;96376.88;;;17.09;100.00
74346;BME280;62776;50.518;6.732;2022-08-19T02:12:30;96384.75;;;17.09;100.00
74346;BME280;62776;50.518;6.732;2022-08-19T02:15:17;96370.81;;;17.07;100.00
74346;BME280;62776;50.518;6.732;2022-08-19T02:18:05;96380.47;;;17.07;100.00
74346;BME280;62776;50.518;6.732;2022-08-19T02:20:54;96374.34;;;17.06;100.00
74346;BME280;62776;50.518;6.732;2022-08-19T02:23:41;96376.94;;;17.08;100.00
74346;BME280;62776;50.518;6.732;2022-08-19T02:26:27;96372.50;;;17.08;100.00
74346;BME280;62776;50.518;6.732;2022-08-19T02:29:13;96372.50;;;17.08;100.00
74346;BME280;62776;50.518;6.732;2022-08-19T02:32:00;96372.59;;;17.07;100.00
74346;BME280;62776;50.518;6.732;2022-08-19T02:34:46;96365.69;;;17.04;100.00
74346;BME280;62776;50.518;6.732;2022-08-19T02:37:33;96375.16;;;17.08;100.00
74346;BME280;62776;50.518;6.732;2022-08-19T02:40:38;96370.94;;;17.04;100.00
74346;BME280;62776;50.518;6.732;2022-08-19T02:43:27;96377.28;;;16.99;100.00
74346;BME280;62776;50.518;6.732;2022-08-19T02:49:07;96388.53;;;17.02;100.00
74346;BME280;62776;50.518;6.732;2022-08-19T02:51:53;96384.97;;;17.03;100.00
74346;BME280;62776;50.518;6.732;2022-08-19T02:54:40;96383.22;;;17.04;100.00
74346;BME280;62776;50.518;6.732;2022-08-19T02:57:26;96386.03;;;16.99;100.00
74346;BME280;62776;50.518;6.732;2022-08-19T03:00:13;96378.25;;;16.96;100.00
74346;BME280;62776;50.518;6.732;2022-08-19T03:02:59;96376.53;;;16.95;100.00
74346;BME280;62776;50.518;6.732;2022-08-19T03:05:46;96379.13;;;16.97;100.00
74346;BME280;62776;50.518;6.732;2022-08-19T03:08:33;96385.34;;;16.94;100.00
74346;BME280;62776;50.518;6.732;2022-08-19T03:11:22;96376.59;;;16.94;100.00
74346;BME280;62776;50.518;6.732;2022-08-19T03:14:09;96375.81;;;16.92;100.00
74346;BME280;62776;50.518;6.732;2022-08-19T03:16:56;96373.97;;;16.94;100.00
74346;BME280;62776;50.518;6.732;2022-08-19T03:19:42;96377.50;;;16.93;100.00
74346;BME280;62776;50.518;6.732;2022-08-19T03:22:28;96390.59;;;16.94;100.00
74346;BME280;62776;50.518;6.732;2022-08-19T03:25:15;96397.66;;;16.92;100.00
74346;BME280;62776;50.518;6.732;2022-08-19T03:28:02;96399.38;;;16.93;100.00
74346;BME280;62776;50.518;6.732;2022-08-19T03:31:15;96396.50;;;16.76;100.00
74346;BME280;62776;50.518;6.732;2022-08-19T03:34:02;96402.88;;;16.94;100.00
74346;BME280;62776;50.518;6.732;2022-08-19T03:36:48;96410.66;;;16.95;100.00
74346;BME280;62776;50.518;6.732;2022-08-19T03:39:36;96409.03;;;16.93;100.00
74346;BME280;62776;50.518;6.732;2022-08-19T03:42:22;96408.00;;;16.97;100.00
74346;BME280;62776;50.518;6.732;2022-08-19T03:45:09;96403.66;;;16.96;100.00
74346;BME280;62776;50.518;6.732;2022-08-19T03:47:56;96404.56;;;16.95;100.00
74346;BME280;62776;50.518;6.732;2022-08-19T03:50:42;96410.78;;;16.92;100.00
74346;BME280;62776;50.518;6.732;2022-08-19T03:53:29;96409.09;;;16.91;100.00
74346;BME280;62776;50.518;6.732;2022-08-19T03:56:16;96401.31;;;16.88;100.00
74346;BME280;62776;50.518;6.732;2022-08-19T03:59:04;96401.44;;;16.85;100.00
74346;BME280;62776;50.518;6.732;2022-08-19T04:01:50;96405.94;;;16.82;100.00
74346;BME280;62776;50.518;6.732;2022-08-19T04:04:41;96412.38;;;16.73;100.00
74346;BME280;62776;50.518;6.732;2022-08-19T04:07:28;96410.56;;;16.75;100.00
74346;BME280;62776;50.518;6.732;2022-08-19T04:10:14;96409.66;;;16.76;100.00
74346;BME280;62776;50.518;6.732;2022-08-19T04:13:00;96410.72;;;16.71;100.00
74346;BME280;62776;50.518;6.732;2022-08-19T04:15:47;96414.31;;;16.68;100.00
74346;BME280;62776;50.518;6.732;2022-08-19T04:18:37;96415.34;;;16.64;100.00
74346;BME280;62776;50.518;6.732;2022-08-19T04:21:25;96420.53;;;16.66;100.00
74346;BME280;62776;50.518;6.732;2022-08-19T04:24:12;96419.69;;;16.65;100.00
74346;BME280;62776;50.518;6.732;2022-08-19T04:27:00;96416.25;;;16.63;100.00
74346;BME280;62776;50.518;6.732;2022-08-19T04:29:48;96408.31;;;16.65;100.00
74346;BME280;62776;50.518;6.732;2022-08-19T04:32:34;96410.16;;;16.63;100.00
74346;BME280;62776;50.518;6.732;2022-08-19T04:35:21;96407.53;;;16.63;100.00
74346;BME280;62776;50.518;6.732;2022-08-19T04:38:08;96415.50;;;16.60;100.00
74346;BME280;62776;50.518;6.732;2022-08-19T04:40:54;96407.75;;;16.57;100.00
74346;BME280;62776;50.518;6.732;2022-08-19T04:43:59;96413.06;;;16.55;100.00
74346;BME280;62776;50.518;6.732;2022-08-19T04:46:46;96417.50;;;16.51;100.00
74346;BME280;62776;50.518;6.732;2022-08-19T04:49:33;96423.56;;;16.55;100.00
74346;BME280;62776;50.518;6.732;2022-08-19T04:52:20;96412.97;;;16.57;100.00
74346;BME280;62776;50.518;6.732;2022-08-19T04:55:06;96420.81;;;16.58;100.00
74346;BME280;62776;50.518;6.732;2022-08-19T04:57:53;96425.84;;;16.64;100.00
74346;BME280;62776;50.518;6.732;2022-08-19T05:00:40;96436.25;;;16.67;100.00
74346;BME280;62776;50.518;6.732;2022-08-19T05:03:26;96435.16;;;16.73;100.00
74346;BME280;62776;50.518;6.732;2022-08-19T05:06:14;96429.75;;;16.77;100.00
74346;BME280;62776;50.518;6.732;2022-08-19T05:09:04;96428.59;;;16.84;100.00
74346;BME280;62776;50.518;6.732;2022-08-19T05:11:51;96426.53;;;16.92;100.00
74346;BME280;62776;50.518;6.732;2022-08-19T05:14:38;96428.94;;;16.98;100.00
74346;BME280;62776;50.518;6.732;2022-08-19T05:17:26;96428.59;;;17.07;100.00
74346;BME280;62776;50.518;6.732;2022-08-19T05:20:12;96438.88;;;17.14;100.00
74346;BME280;62776;50.518;6.732;2022-08-19T05:23:21;96443.75;;;17.23;100.00
74346;BME280;62776;50.518;6.732;2022-08-19T05:26:07;96438.16;;;17.32;100.00
74346;BME280;62776;50.518;6.732;2022-08-19T05:28:55;96443.25;;;17.36;100.00
74346;BME280;62776;50.518;6.732;2022-08-19T05:31:42;96442.25;;;17.39;100.00
74346;BME280;62776;50.518;6.732;2022-08-19T05:34:28;96449.06;;;17.44;100.00
74346;BME280;62776;50.518;6.732;2022-08-19T05:37:14;96441.88;;;17.49;100.00
74346;BME280;62776;50.518;6.732;2022-08-19T05:40:00;96431.94;;;17.57;100.00
74346;BME280;62776;50.518;6.732;2022-08-19T05:42:47;96438.78;;;17.61;100.00
74346;BME280;62776;50.518;6.732;2022-08-19T05:45:37;96451.75;;;17.66;100.00
74346;BME280;62776;50.518;6.732;2022-08-19T05:48:23;96442.69;;;17.73;100.00
74346;BME280;62776;50.518;6.732;2022-08-19T05:51:10;96454.00;;;17.75;100.00
74346;BME280;62776;50.518;6.732;2022-08-19T05:53:56;96447.72;;;17.79;100.00
74346;BME280;62776;50.518;6.732;2022-08-19T05:56:44;96448.50;;;17.81;100.00
74346;BME280;62776;50.518;6.732;2022-08-19T05:59:33;96455.34;;;17.85;100.00
74346;BME280;62776;50.518;6.732;2022-08-19T06:02:21;96452.72;;;17.85;100.00
74346;BME280;62776;50.518;6.732;2022-08-19T06:05:08;96448.13;;;17.90;100.00
74346;BME280;62776;50.518;6.732;2022-08-19T06:07:54;96448.13;;;17.90;100.00
74346;BME280;62776;50.518;6.732;2022-08-19T06:10:40;96463.84;;;17.92;100.00
74346;BME280;62776;50.518;6.732;2022-08-19T06:13:26;96455.94;;;17.92;100.00
74346;BME280;62776;50.518;6.732;2022-08-19T06:16:14;96454.84;;;17.97;100.00
74346;BME280;62776;50.518;6.732;2022-08-19T06:19:12;96453.94;;;17.98;100.00
74346;BME280;62776;50.518;6.732;2022-08-19T06:22:00;96445.94;;;18.01;100.00
74346;BME280;62776;50.518;6.732;2022-08-19T06:24:46;96446.38;;;18.11;100.00
74346;BME280;62776;50.518;6.732;2022-08-19T06:27:32;96452.25;;;18.17;100.00
74346;BME280;62776;50.518;6.732;2022-08-19T06:30:19;96451.94;;;18.25;100.00
74346;BME280;62776;50.518;6.732;2022-08-19T06:33:05;96453.19;;;18.37;100.00
74346;BME280;62776;50.518;6.732;2022-08-19T06:35:51;96464.25;;;18.45;100.00
74346;BME280;62776;50.518;6.732;2022-08-19T06:38:38;96461.25;;;18.54;100.00
74346;BME280;62776;50.518;6.732;2022-08-19T06:41:28;96459.97;;;18.62;100.00
74346;BME280;62776;50.518;6.732;2022-08-19T06:44:14;96452.16;;;18.81;100.00
74346;BME280;62776;50.518;6.732;2022-08-19T06:47:03;96452.66;;;18.89;100.00
74346;BME280;62776;50.518;6.732;2022-08-19T06:49:49;96452.09;;;19.01;100.00
74346;BME280;62776;50.518;6.732;2022-08-19T06:52:36;96448.84;;;19.15;100.00
74346;BME280;62776;50.518;6.732;2022-08-19T06:55:22;96456.94;;;19.30;100.00
74346;BME280;62776;50.518;6.732;2022-08-19T06:58:08;96469.63;;;19.41;100.00
74346;BME280;62776;50.518;6.732;2022-08-19T07:00:55;96466.13;;;19.59;100.00
74346;BME280;62776;50.518;6.732;2022-08-19T07:03:41;96468.13;;;19.73;100.00
74346;BME280;62776;50.518;6.732;2022-08-19T07:06:27;96469.03;;;19.90;99.07
74346;BME280;62776;50.518;6.732;2022-08-19T07:09:17;96461.34;;;20.03;97.50
74346;BME280;62776;50.518;6.732;2022-08-19T07:12:05;96464.19;;;20.17;96.04
74346;BME280;62776;50.518;6.732;2022-08-19T07:14:52;96464.22;;;20.34;94.18
74346;BME280;62776;50.518;6.732;2022-08-19T07:17:39;96459.88;;;20.50;91.94
74346;BME280;62776;50.518;6.732;2022-08-19T07:20:25;96459.13;;;20.66;91.50
74346;BME280;62776;50.518;6.732;2022-08-19T07:23:12;96467.25;;;20.78;88.97
74346;BME280;62776;50.518;6.732;2022-08-19T07:26:09;96457.84;;;20.90;86.09
74346;BME280;62776;50.518;6.732;2022-08-19T07:28:56;96470.69;;;20.96;85.30
74346;BME280;62776;50.518;6.732;2022-08-19T07:31:43;96470.22;;;21.05;84.94
74346;BME280;62776;50.518;6.732;2022-08-19T07:34:30;96476.38;;;21.05;82.76
74346;BME280;62776;50.518;6.732;2022-08-19T07:37:16;96478.47;;;21.16;82.58
74346;BME280;62776;50.518;6.732;2022-08-19T07:40:05;96470.13;;;21.24;81.82
74346;BME280;62776;50.518;6.732;2022-08-19T07:42:51;96480.66;;;21.41;80.29
74346;BME280;62776;50.518;6.732;2022-08-19T07:45:37;96484.44;;;21.52;79.85
74346;BME280;62776;50.518;6.732;2022-08-19T07:48:28;96490.31;;;21.57;78.92
74346;BME280;62776;50.518;6.732;2022-08-19T07:51:17;96485.19;;;21.70;76.76
74346;BME280;62776;50.518;6.732;2022-08-19T07:54:04;96482.50;;;21.87;76.79
74346;BME280;62776;50.518;6.732;2022-08-19T07:56:50;96480.63;;;22.05;76.60
74346;BME280;62776;50.518;6.732;2022-08-19T07:59:36;96486.88;;;22.19;75.08
74346;BME280;62776;50.518;6.732;2022-08-19T08:02:22;96487.84;;;22.32;73.55
74346;BME280;62776;50.518;6.732;2022-08-19T08:05:10;96495.06;;;22.45;72.51
74346;BME280;62776;50.518;6.732;2022-08-19T08:08:14;96495.41;;;22.54;70.91
74346;BME280;62776;50.518;6.732;2022-08-19T08:11:20;96507.03;;;22.67;70.82
74346;BME280;62776;50.518;6.732;2022-08-19T08:14:07;96500.34;;;22.76;69.18
74346;BME280;62776;50.518;6.732;2022-08-19T08:16:54;96501.47;;;22.86;68.71
74346;BME280;62776;50.518;6.732;2022-08-19T08:19:41;96504.16;;;23.00;68.12
74346;BME280;62776;50.518;6.732;2022-08-19T08:22:28;96500.84;;;23.11;68.87
74346;BME280;62776;50.518;6.732;2022-08-19T08:25:33;96504.28;;;23.13;68.22
74346;BME280;62776;50.518;6.732;2022-08-19T08:28:21;96510.91;;;23.20;67.23
74346;BME280;62776;50.518;6.732;2022-08-19T08:31:07;96505.97;;;23.14;66.99
74346;BME280;62776;50.518;6.732;2022-08-19T08:33:55;96501.03;;;23.08;65.81
74346;BME280;62776;50.518;6.732;2022-08-19T08:36:44;96500.78;;;23.12;65.41
74346;BME280;62776;50.518;6.732;2022-08-19T08:39:31;96507.22;;;23.22;66.04
74346;BME280;62776;50.518;6.732;2022-08-19T08:42:29;96507.34;;;23.21;64.83
74346;BME280;62776;50.518;6.732;2022-08-19T08:45:18;96509.81;;;23.38;64.86
74346;BME280;62776;50.518;6.732;2022-08-19T08:51:40;96512.53;;;23.36;63.62
74346;BME280;62776;50.518;6.732;2022-08-19T08:54:34;96509.94;;;23.51;63.39
74346;BME280;62776;50.518;6.732;2022-08-19T08:57:38;96510.88;;;23.64;64.09
74346;BME280;62776;50.518;6.732;2022-08-19T09:00:33;96510.53;;;23.96;62.61
74346;BME280;62776;50.518;6.732;2022-08-19T09:03:28;96507.09;;;24.08;61.20
74346;BME280;62776;50.518;6.732;2022-08-19T09:06:44;96509.31;;;23.88;60.96
74346;BME280;62776;50.518;6.732;2022-08-19T09:09:39;96507.75;;;24.12;61.50
74346;BME280;62776;50.518;6.732;2022-08-19T09:12:52;96511.63;;;24.06;61.75
74346;BME280;62776;50.518;6.732;2022-08-19T09:15:47;96512.72;;;23.90;61.17
74346;BME280;62776;50.518;6.732;2022-08-19T09:18:50;96512.47;;;23.80;62.43
74346;BME280;62776;50.518;6.732;2022-08-19T09:21:40;96509.38;;;24.15;62.96
74346;BME280;62776;50.518;6.732;2022-08-19T09:24:26;96508.78;;;24.24;61.55
74346;BME280;62776;50.518;6.732;2022-08-19T09:27:12;96506.66;;;24.29;60.78
74346;BME280;62776;50.518;6.732;2022-08-19T09:29:58;96500.91;;;24.49;60.63
74346;BME280;62776;50.518;6.732;2022-08-19T09:32:45;96493.06;;;24.60;59.99
74346;BME280;62776;50.518;6.732;2022-08-19T09:35:32;96492.47;;;24.42;58.34
74346;BME280;62776;50.518;6.732;2022-08-19T09:38:18;96509.09;;;24.19;58.65
74346;BME280;62776;50.518;6.732;2022-08-19T09:41:12;96496.47;;;24.23;58.81
74346;BME280;62776;50.518;6.732;2022-08-19T09:43:59;96500.06;;;24.48;58.96
74346;BME280;62776;50.518;6.732;2022-08-19T09:46:45;96498.31;;;24.74;57.38
74346;BME280;62776;50.518;6.732;2022-08-19T09:49:33;96497.25;;;25.16;56.48
74346;BME280;62776;50.518;6.732;2022-08-19T09:52:19;96503.09;;;25.46;55.16
74346;BME280;62776;50.518;6.732;2022-08-19T09:55:07;96510.66;;;25.40;55.17
74346;BME280;62776;50.518;6.732;2022-08-19T09:57:54;96504.69;;;25.36;55.74
74346;BME280;62776;50.518;6.732;2022-08-19T10:00:40;96503.97;;;25.47;55.39
74346;BME280;62776;50.518;6.732;2022-08-19T10:03:28;96496.81;;;25.72;55.00
74346;BME280;62776;50.518;6.732;2022-08-19T10:06:14;96500.41;;;25.84;53.55
74346;BME280;62776;50.518;6.732;2022-08-19T10:09:00;96498.56;;;25.97;52.65
74346;BME280;62776;50.518;6.732;2022-08-19T10:11:47;96495.75;;;26.11;50.92
74346;BME280;62776;50.518;6.732;2022-08-19T10:14:34;96495.41;;;26.28;50.54
74346;BME280;62776;50.518;6.732;2022-08-19T10:17:20;96487.06;;;26.33;51.02
74346;BME280;62776;50.518;6.732;2022-08-19T10:20:07;96482.75;;;26.43;50.13
74346;BME280;62776;50.518;6.732;2022-08-19T10:22:53;96486.09;;;26.58;49.40
74346;BME280;62776;50.518;6.732;2022-08-19T10:25:40;96487.72;;;26.71;47.66
74346;BME280;62776;50.518;6.732;2022-08-19T10:28:26;96488.66;;;26.83;46.85
74346;BME280;62776;50.518;6.732;2022-08-19T10:31:27;96490.03;;;26.76;46.64
74346;BME280;62776;50.518;6.732;2022-08-19T10:34:14;96484.16;;;26.60;47.38
74346;BME280;62776;50.518;6.732;2022-08-19T10:37:00;96484.34;;;26.46;46.60
74346;BME280;62776;50.518;6.732;2022-08-19T10:39:47;96478.78;;;26.49;47.29
74346;BME280;62776;50.518;6.732;2022-08-19T10:42:36;96469.63;;;26.40;44.93
74346;BME280;62776;50.518;6.732;2022-08-19T10:45:23;96473.03;;;26.18;46.76
74346;BME280;62776;50.518;6.732;2022-08-19T10:48:11;96469.69;;;26.04;45.33
74346;BME280;62776;50.518;6.732;2022-08-19T10:50:58;96472.72;;;26.10;45.94
74346;BME280;62776;50.518;6.732;2022-08-19T10:54:07;96474.38;;;26.00;49.73
74346;BME280;62776;50.518;6.732;2022-08-19T10:56:53;96470.78;;;25.89;49.18
74346;BME280;62776;50.518;6.732;2022-08-19T10:59:39;96475.53;;;25.96;48.12
74346;BME280;62776;50.518;6.732;2022-08-19T11:02:25;96471.59;;;26.14;47.62
74346;BME280;62776;50.518;6.732;2022-08-19T11:05:12;96472.44;;;26.15;46.79
74346;BME280;62776;50.518;6.732;2022-08-19T11:08:00;96472.72;;;26.10;47.61
74346;BME280;62776;50.518;6.732;2022-08-19T11:10:46;96477.44;;;26.07;47.50
74346;BME280;62776;50.518;6.732;2022-08-19T11:13:35;96466.31;;;25.89;47.05
74346;BME280;62776;50.518;6.732;2022-08-19T11:16:25;96469.47;;;25.94;48.80
74346;BME280;62776;50.518;6.732;2022-08-19T11:19:16;96463.38;;;26.17;48.10
74346;BME280;62776;50.518;6.732;2022-08-19T11:22:07;96460.63;;;26.30;45.93
74346;BME280;62776;50.518;6.732;2022-08-19T11:24:55;96459.28;;;26.24;45.03
74346;BME280;62776;50.518;6.732;2022-08-19T11:27:42;96469.84;;;26.26;45.94
74346;BME280;62776;50.518;6.732;2022-08-19T11:30:29;96467.84;;;26.41;45.30
74346;BME280;62776;50.518;6.732;2022-08-19T11:33:15;96457.94;;;26.54;43.91
74346;BME280;62776;50.518;6.732;2022-08-19T11:36:01;96454.88;;;26.71;45.23
74346;BME280;62776;50.518;6.732;2022-08-19T11:38:49;96455.59;;;26.73;45.56
74346;BME280;62776;50.518;6.732;2022-08-19T11:41:35;96461.91;;;26.72;46.09
74346;BME280;62776;50.518;6.732;2022-08-19T11:44:22;96453.41;;;27.02;45.00
74346;BME280;62776;50.518;6.732;2022-08-19T11:47:08;96463.97;;;27.14;42.39
74346;BME280;62776;50.518;6.732;2022-08-19T11:49:54;96463.63;;;27.08;42.08
74346;BME280;62776;50.518;6.732;2022-08-19T11:52:40;96452.31;;;27.04;42.93
74346;BME280;62776;50.518;6.732;2022-08-19T11:55:26;96456.72;;;27.16;43.80
74346;BME280;62776;50.518;6.732;2022-08-19T11:58:16;96450.66;;;27.36;44.13
74346;BME280;62776;50.518;6.732;2022-08-19T12:01:09;96456.63;;;27.40;42.80
74346;BME280;62776;50.518;6.732;2022-08-19T12:03:57;96465.94;;;27.34;41.94
74346;BME280;62776;50.518;6.732;2022-08-19T12:06:43;96458.78;;;27.24;42.41
74346;BME280;62776;50.518;6.732;2022-08-19T12:09:29;96450.22;;;27.42;42.97
74346;BME280;62776;50.518;6.732;2022-08-19T12:12:16;96445.09;;;27.50;42.39
74346;BME280;62776;50.518;6.732;2022-08-19T12:15:02;96448.59;;;27.40;41.75
74346;BME280;62776;50.518;6.732;2022-08-19T12:17:48;96448.41;;;27.43;42.86
74346;BME280;62776;50.518;6.732;2022-08-19T12:20:39;96443.91;;;27.43;41.99
74346;BME280;62776;50.518;6.732;2022-08-19T12:23:25;96433.81;;;27.58;42.92
74346;BME280;62776;50.518;6.732;2022-08-19T12:26:12;96444.16;;;27.63;42.03
74346;BME280;62776;50.518;6.732;2022-08-19T12:28:58;96436.38;;;27.60;42.19
74346;BME280;62776;50.518;6.732;2022-08-19T12:31:45;96441.06;;;27.34;42.66
74346;BME280;62776;50.518;6.732;2022-08-19T12:34:32;96447.75;;;27.28;43.43
74346;BME280;62776;50.518;6.732;2022-08-19T12:37:18;96446.06;;;27.38;42.78
74346;BME280;62776;50.518;6.732;2022-08-19T12:40:04;96444.38;;;27.48;43.21
74346;BME280;62776;50.518;6.732;2022-08-19T12:42:51;96451.06;;;27.54;42.77
74346;BME280;62776;50.518;6.732;2022-08-19T12:45:37;96443.44;;;27.49;41.94
74346;BME280;62776;50.518;6.732;2022-08-19T12:48:23;96445.59;;;27.44;41.14
74346;BME280;62776;50.518;6.732;2022-08-19T12:51:13;96437.34;;;27.47;42.02
74346;BME280;62776;50.518;6.732;2022-08-19T12:53:59;96434.91;;;27.44;40.34
74346;BME280;62776;50.518;6.732;2022-08-19T12:59:46;96425.31;;;27.42;39.85
74346;BME280;62776;50.518;6.732;2022-08-19T13:02:32;96426.19;;;27.42;40.06
74346;BME280;62776;50.518;6.732;2022-08-19T13:05:21;96430.78;;;27.40;39.89
74346;BME280;62776;50.518;6.732;2022-08-19T13:08:08;96435.84;;;27.21;40.68
74346;BME280;62776;50.518;6.732;2022-08-19T13:10:54;96429.66;;;27.21;40.39
74346;BME280;62776;50.518;6.732;2022-08-19T13:13:42;96412.44;;;27.36;40.33
74346;BME280;62776;50.518;6.732;2022-08-19T13:16:29;96425.91;;;27.34;39.44
74346;BME280;62776;50.518;6.732;2022-08-19T13:19:15;96419.97;;;27.42;39.57
74346;BME280;62776;50.518;6.732;2022-08-19T13:22:01;96417.44;;;27.40;38.70
74346;BME280;62776;50.518;6.732;2022-08-19T13:24:47;96415.25;;;27.45;39.55
74346;BME280;62776;50.518;6.732;2022-08-19T13:27:34;96410.53;;;27.60;38.76
74346;BME280;62776;50.518;6.732;2022-08-19T13:30:21;96418.16;;;27.53;38.93
74346;BME280;62776;50.518;6.732;2022-08-19T13:33:26;96419.34;;;27.72;39.07
74346;BME280;62776;50.518;6.732;2022-08-19T13:36:12;96402.56;;;27.92;38.65
74346;BME280;62776;50.518;6.732;2022-08-19T13:38:58;96415.44;;;27.87;38.94
74346;BME280;62776;50.518;6.732;2022-08-19T13:41:45;96413.03;;;27.73;39.65
74346;BME280;62776;50.518;6.732;2022-08-19T13:44:35;96410.84;;;27.78;39.69
74346;BME280;62776;50.518;6.732;2022-08-19T13:47:21;96403.03;;;27.97;39.37
74346;BME280;62776;50.518;6.732;2022-08-19T13:50:11;96408.13;;;28.00;37.65
74346;BME280;62776;50.518;6.732;2022-08-19T13:52:58;96414.13;;;28.35;37.82
74346;BME280;62776;50.518;6.732;2022-08-19T13:55:45;96402.97;;;29.03;36.76
74346;BME280;62776;50.518;6.732;2022-08-19T13:58:31;96392.56;;;29.70;35.87
74346;BME280;62776;50.518;6.732;2022-08-19T14:01:24;96394.78;;;30.05;35.45
74346;BME280;62776;50.518;6.732;2022-08-19T14:04:12;96395.84;;;30.52;34.77
74346;BME280;62776;50.518;6.732;2022-08-19T14:06:58;96401.19;;;30.90;34.03
74346;BME280;62776;50.518;6.732;2022-08-19T14:09:44;96401.13;;;31.29;32.95
74346;BME280;62776;50.518;6.732;2022-08-19T14:12:30;96415.03;;;31.15;33.59
74346;BME280;62776;50.518;6.732;2022-08-19T14:15:17;96402.38;;;31.34;33.12
74346;BME280;62776;50.518;6.732;2022-08-19T14:18:03;96407.38;;;31.66;33.09
74346;BME280;62776;50.518;6.732;2022-08-19T14:20:50;96401.91;;;31.85;32.75
74346;BME280;62776;50.518;6.732;2022-08-19T14:23:36;96410.88;;;32.03;32.44
74346;BME280;62776;50.518;6.732;2022-08-19T14:26:22;96409.06;;;32.39;31.55
74346;BME280;62776;50.518;6.732;2022-08-19T14:29:08;96409.69;;;32.33;32.30
74346;BME280;62776;50.518;6.732;2022-08-19T14:31:55;96421.56;;;33.37;31.01
74346;BME280;62776;50.518;6.732;2022-08-19T14:34:44;96417.91;;;33.02;31.72
74346;BME280;62776;50.518;6.732;2022-08-19T14:37:32;96417.78;;;32.86;32.14
74346;BME280;62776;50.518;6.732;2022-08-19T14:40:19;96426.28;;;33.35;31.47
74346;BME280;62776;50.518;6.732;2022-08-19T14:43:08;96425.47;;;32.46;31.97
74346;BME280;62776;50.518;6.732;2022-08-19T14:45:54;96428.28;;;32.27;32.87
74346;BME280;62776;50.518;6.732;2022-08-19T14:48:43;96427.69;;;32.86;32.11
74346;BME280;62776;50.518;6.732;2022-08-19T14:51:29;96432.09;;;32.69;31.97
74346;BME280;62776;50.518;6.732;2022-08-19T14:54:15;96436.97;;;30.62;35.05
74346;BME280;62776;50.518;6.732;2022-08-19T14:57:01;96444.50;;;29.69;36.92